sensor_id;sensor_type;location;lat;lon;timestamp;P1;durP1;ratioP1;P2;durP2;ratioP2
56997;SDS011;42890;44.244;22.530;2023-04-08T00:00:12;87.50;;;72.05;;
56997;SDS011;42890;44.244;22.530;2023-04-08T00:02:38;91.88;;;72.80;;
56997;SDS011;42890;44.244;22.530;2023-04-08T00:05:05;150.13;;;85.07;;
56997;SDS011;42890;44.244;22.530;2023-04-08T00:07:32;104.70;;;76.32;;
56997;SDS011;42890;44.244;22.530;2023-04-08T00:09:58;80.95;;;72.18;;
56997;SDS011;42890;44.244;22.530;2023-04-08T00:12:24;91.30;;;73.40;;
56997;SDS011;42890;44.244;22.530;2023-04-08T00:14:51;85.95;;;71.38;;
56997;SDS011;42890;44.244;22.530;2023-04-08T00:17:17;78.90;;;70.60;;
56997;SDS011;42890;44.244;22.530;2023-04-08T00:19:43;79.53;;;71.13;;
56997;SDS011;42890;44.244;22.530;2023-04-08T00:22:09;79.55;;;71.00;;
56997;SDS011;42890;44.244;22.530;2023-04-08T00:24:35;84.03;;;73.65;;
56997;SDS011;42890;44.244;22.530;2023-04-08T00:27:02;89.10;;;75.00;;
56997;SDS011;42890;44.244;22.530;2023-04-08T00:29:28;82.97;;;73.88;;
56997;SDS011;42890;44.244;22.530;2023-04-08T00:31:54;83.22;;;74.20;;
56997;SDS011;42890;44.244;22.530;2023-04-08T00:34:20;87.75;;;75.00;;
56997;SDS011;42890;44.244;22.530;2023-04-08T00:36:47;88.43;;;74.18;;
56997;SDS011;42890;44.244;22.530;2023-04-08T00:39:13;97.53;;;77.07;;
56997;SDS011;42890;44.244;22.530;2023-04-08T00:41:39;98.07;;;78.70;;
56997;SDS011;42890;44.244;22.530;2023-04-08T00:44:05;103.53;;;82.05;;
56997;SDS011;42890;44.244;22.530;2023-04-08T00:46:35;117.85;;;85.53;;
56997;SDS011;42890;44.244;22.530;2023-04-08T00:49:02;104.78;;;83.13;;
56997;SDS011;42890;44.244;22.530;2023-04-08T00:51:29;108.95;;;84.13;;
56997;SDS011;42890;44.244;22.530;2023-04-08T00:53:56;103.80;;;82.25;;
56997;SDS011;42890;44.244;22.530;2023-04-08T00:56:22;112.88;;;85.45;;
56997;SDS011;42890;44.244;22.530;2023-04-08T00:58:50;128.95;;;88.68;;
56997;SDS011;42890;44.244;22.530;2023-04-08T01:04:20;160.27;;;100.13;;
56997;SDS011;42890;44.244;22.530;2023-04-08T01:09:24;127.70;;;88.55;;
56997;SDS011;42890;44.244;22.530;2023-04-08T01:11:52;132.77;;;90.32;;
56997;SDS011;42890;44.244;22.530;2023-04-08T01:14:19;179.80;;;107.10;;
56997;SDS011;42890;44.244;22.530;2023-04-08T01:16:46;161.68;;;103.05;;
56997;SDS011;42890;44.244;22.530;2023-04-08T01:19:17;141.45;;;93.90;;
56997;SDS011;42890;44.244;22.530;2023-04-08T01:21:47;141.43;;;93.80;;
56997;SDS011;42890;44.244;22.530;2023-04-08T01:24:18;135.27;;;94.05;;
56997;SDS011;42890;44.244;22.530;2023-04-08T01:26:45;115.75;;;87.03;;
56997;SDS011;42890;44.244;22.530;2023-04-08T01:29:11;109.75;;;85.30;;
56997;SDS011;42890;44.244;22.530;2023-04-08T01:31:38;120.70;;;87.63;;
56997;SDS011;42890;44.244;22.530;2023-04-08T01:34:05;127.28;;;91.10;;
56997;SDS011;42890;44.244;22.530;2023-04-08T01:36:32;114.05;;;86.35;;
56997;SDS011;42890;44.244;22.530;2023-04-08T01:39:00;101.72;;;80.40;;
56997;SDS011;42890;44.244;22.530;2023-04-08T01:41:28;110.28;;;84.82;;
56997;SDS011;42890;44.244;22.530;2023-04-08T01:43:55;105.95;;;83.32;;
56997;SDS011;42890;44.244;22.530;2023-04-08T01:46:21;114.22;;;86.03;;
56997;SDS011;42890;44.244;22.530;2023-04-08T01:48:47;96.72;;;82.65;;
56997;SDS011;42890;44.244;22.530;2023-04-08T01:51:14;100.43;;;80.20;;
56997;SDS011;42890;44.244;22.530;2023-04-08T01:53:41;99.80;;;80.60;;
56997;SDS011;42890;44.244;22.530;2023-04-08T01:56:09;96.78;;;78.32;;
56997;SDS011;42890;44.244;22.530;2023-04-08T01:58:38;130.93;;;91.10;;
56997;SDS011;42890;44.244;22.530;2023-04-08T02:01:08;100.70;;;81.93;;
56997;SDS011;42890;44.244;22.530;2023-04-08T02:03:35;135.88;;;101.43;;
56997;SDS011;42890;44.244;22.530;2023-04-08T02:06:01;106.80;;;85.43;;
56997;SDS011;42890;44.244;22.530;2023-04-08T02:08:27;104.85;;;83.90;;
56997;SDS011;42890;44.244;22.530;2023-04-08T02:10:53;120.75;;;91.95;;
56997;SDS011;42890;44.244;22.530;2023-04-08T02:13:20;104.93;;;83.68;;
56997;SDS011;42890;44.244;22.530;2023-04-08T02:15:48;137.80;;;98.55;;
56997;SDS011;42890;44.244;22.530;2023-04-08T02:18:21;126.15;;;92.78;;
56997;SDS011;42890;44.244;22.530;2023-04-08T02:20:52;107.90;;;84.87;;
56997;SDS011;42890;44.244;22.530;2023-04-08T02:23:21;85.47;;;73.55;;
56997;SDS011;42890;44.244;22.530;2023-04-08T02:25:48;74.78;;;66.57;;
56997;SDS011;42890;44.244;22.530;2023-04-08T02:28:16;69.60;;;62.47;;
56997;SDS011;42890;44.244;22.530;2023-04-08T02:30:48;81.47;;;72.68;;
56997;SDS011;42890;44.244;22.530;2023-04-08T02:33:15;76.22;;;68.13;;
56997;SDS011;42890;44.244;22.530;2023-04-08T02:35:43;65.93;;;59.35;;
56997;SDS011;42890;44.244;22.530;2023-04-08T02:38:10;61.58;;;55.60;;
56997;SDS011;42890;44.244;22.530;2023-04-08T02:40:36;58.65;;;53.10;;
56997;SDS011;42890;44.244;22.530;2023-04-08T02:43:02;60.55;;;54.60;;
56997;SDS011;42890;44.244;22.530;2023-04-08T02:45:29;63.50;;;57.22;;
56997;SDS011;42890;44.244;22.530;2023-04-08T02:47:56;64.72;;;58.00;;
56997;SDS011;42890;44.244;22.530;2023-04-08T02:50:22;65.20;;;58.65;;
56997;SDS011;42890;44.244;22.530;2023-04-08T02:52:48;65.20;;;58.55;;
56997;SDS011;42890;44.244;22.530;2023-04-08T02:55:14;65.55;;;59.17;;
56997;SDS011;42890;44.244;22.530;2023-04-08T02:57:41;63.03;;;56.97;;
56997;SDS011;42890;44.244;22.530;2023-04-08T03:00:07;66.45;;;59.95;;
56997;SDS011;42890;44.244;22.530;2023-04-08T03:02:33;63.55;;;57.05;;
56997;SDS011;42890;44.244;22.530;2023-04-08T03:04:59;61.05;;;55.22;;
56997;SDS011;42890;44.244;22.530;2023-04-08T03:07:26;62.15;;;56.03;;
56997;SDS011;42890;44.244;22.530;2023-04-08T03:09:53;62.58;;;56.30;;
56997;SDS011;42890;44.244;22.530;2023-04-08T03:12:19;61.30;;;55.17;;
56997;SDS011;42890;44.244;22.530;2023-04-08T03:14:45;60.03;;;54.03;;
56997;SDS011;42890;44.244;22.530;2023-04-08T03:17:12;57.78;;;52.17;;
56997;SDS011;42890;44.244;22.530;2023-04-08T03:19:38;61.47;;;55.03;;
56997;SDS011;42890;44.244;22.530;2023-04-08T03:22:04;65.18;;;58.15;;
56997;SDS011;42890;44.244;22.530;2023-04-08T03:24:30;109.90;;;85.47;;
56997;SDS011;42890;44.244;22.530;2023-04-08T03:26:56;109.57;;;87.25;;
56997;SDS011;42890;44.244;22.530;2023-04-08T03:29:22;113.25;;;89.38;;
56997;SDS011;42890;44.244;22.530;2023-04-08T03:31:48;96.60;;;81.28;;
56997;SDS011;42890;44.244;22.530;2023-04-08T03:34:14;133.77;;;96.03;;
56997;SDS011;42890;44.244;22.530;2023-04-08T03:36:40;112.03;;;86.38;;
56997;SDS011;42890;44.244;22.530;2023-04-08T03:39:06;78.03;;;69.82;;
56997;SDS011;42890;44.244;22.530;2023-04-08T03:41:33;78.07;;;69.60;;
56997;SDS011;42890;44.244;22.530;2023-04-08T03:43:59;110.40;;;85.80;;
56997;SDS011;42890;44.244;22.530;2023-04-08T03:46:25;104.60;;;82.95;;
56997;SDS011;42890;44.244;22.530;2023-04-08T03:48:51;83.40;;;74.03;;
56997;SDS011;42890;44.244;22.530;2023-04-08T03:51:17;92.30;;;79.63;;
56997;SDS011;42890;44.244;22.530;2023-04-08T03:53:43;78.32;;;69.78;;
56997;SDS011;42890;44.244;22.530;2023-04-08T03:56:09;78.82;;;70.20;;
56997;SDS011;42890;44.244;22.530;2023-04-08T03:58:35;87.72;;;75.45;;
56997;SDS011;42890;44.244;22.530;2023-04-08T04:01:01;101.13;;;81.30;;
56997;SDS011;42890;44.244;22.530;2023-04-08T04:03:27;80.80;;;72.22;;
56997;SDS011;42890;44.244;22.530;2023-04-08T04:05:53;66.63;;;59.72;;
56997;SDS011;42890;44.244;22.530;2023-04-08T04:08:20;66.18;;;59.25;;
56997;SDS011;42890;44.244;22.530;2023-04-08T04:10:46;64.75;;;58.20;;
56997;SDS011;42890;44.244;22.530;2023-04-08T04:13:12;59.00;;;53.25;;
56997;SDS011;42890;44.244;22.530;2023-04-08T04:15:38;53.50;;;48.25;;
56997;SDS011;42890;44.244;22.530;2023-04-08T04:18:05;54.63;;;49.10;;
56997;SDS011;42890;44.244;22.530;2023-04-08T04:20:31;54.58;;;49.08;;
56997;SDS011;42890;44.244;22.530;2023-04-08T04:22:57;53.40;;;48.17;;
56997;SDS011;42890;44.244;22.530;2023-04-08T04:25:23;52.40;;;47.08;;
56997;SDS011;42890;44.244;22.530;2023-04-08T04:27:49;56.65;;;50.85;;
56997;SDS011;42890;44.244;22.530;2023-04-08T04:30:15;57.45;;;51.65;;
56997;SDS011;42890;44.244;22.530;2023-04-08T04:32:43;60.08;;;53.63;;
56997;SDS011;42890;44.244;22.530;2023-04-08T04:35:10;59.22;;;53.13;;
56997;SDS011;42890;44.244;22.530;2023-04-08T04:37:36;62.17;;;55.90;;
56997;SDS011;42890;44.244;22.530;2023-04-08T04:40:02;68.20;;;61.20;;
56997;SDS011;42890;44.244;22.530;2023-04-08T04:42:29;65.90;;;58.80;;
56997;SDS011;42890;44.244;22.530;2023-04-08T04:44:55;67.25;;;60.42;;
56997;SDS011;42890;44.244;22.530;2023-04-08T04:47:22;71.70;;;59.28;;
56997;SDS011;42890;44.244;22.530;2023-04-08T04:49:49;66.75;;;59.63;;
56997;SDS011;42890;44.244;22.530;2023-04-08T04:52:15;65.10;;;58.47;;
56997;SDS011;42890;44.244;22.530;2023-04-08T04:54:41;66.60;;;59.78;;
56997;SDS011;42890;44.244;22.530;2023-04-08T04:57:07;64.35;;;57.22;;
56997;SDS011;42890;44.244;22.530;2023-04-08T04:59:35;63.47;;;56.92;;
56997;SDS011;42890;44.244;22.530;2023-04-08T05:02:01;63.75;;;57.17;;
56997;SDS011;42890;44.244;22.530;2023-04-08T05:04:27;62.55;;;55.88;;
56997;SDS011;42890;44.244;22.530;2023-04-08T05:06:53;65.80;;;58.95;;
56997;SDS011;42890;44.244;22.530;2023-04-08T05:09:19;60.40;;;54.33;;
56997;SDS011;42890;44.244;22.530;2023-04-08T05:11:45;59.97;;;54.08;;
56997;SDS011;42890;44.244;22.530;2023-04-08T05:14:11;60.03;;;53.67;;
56997;SDS011;42890;44.244;22.530;2023-04-08T05:16:37;60.08;;;53.90;;
56997;SDS011;42890;44.244;22.530;2023-04-08T05:19:03;58.30;;;52.53;;
56997;SDS011;42890;44.244;22.530;2023-04-08T05:21:30;55.13;;;49.58;;
56997;SDS011;42890;44.244;22.530;2023-04-08T05:23:56;57.85;;;51.67;;
56997;SDS011;42890;44.244;22.530;2023-04-08T05:26:22;55.55;;;50.15;;
56997;SDS011;42890;44.244;22.530;2023-04-08T05:28:49;54.83;;;49.17;;
56997;SDS011;42890;44.244;22.530;2023-04-08T05:31:18;56.42;;;50.92;;
56997;SDS011;42890;44.244;22.530;2023-04-08T05:33:44;57.10;;;51.08;;
56997;SDS011;42890;44.244;22.530;2023-04-08T05:36:11;55.85;;;50.08;;
56997;SDS011;42890;44.244;22.530;2023-04-08T05:38:37;56.55;;;50.88;;
56997;SDS011;42890;44.244;22.530;2023-04-08T05:41:03;58.25;;;52.05;;
56997;SDS011;42890;44.244;22.530;2023-04-08T05:43:31;56.67;;;50.95;;
56997;SDS011;42890;44.244;22.530;2023-04-08T05:45:57;53.95;;;48.58;;
56997;SDS011;42890;44.244;22.530;2023-04-08T05:48:23;58.92;;;52.97;;
56997;SDS011;42890;44.244;22.530;2023-04-08T05:50:50;64.07;;;57.33;;
56997;SDS011;42890;44.244;22.530;2023-04-08T05:53:16;62.65;;;55.92;;
56997;SDS011;42890;44.244;22.530;2023-04-08T05:55:42;67.88;;;60.97;;
56997;SDS011;42890;44.244;22.530;2023-04-08T05:58:08;66.85;;;60.17;;
56997;SDS011;42890;44.244;22.530;2023-04-08T06:00:34;72.05;;;60.03;;
56997;SDS011;42890;44.244;22.530;2023-04-08T06:03:00;66.47;;;59.65;;
56997;SDS011;42890;44.244;22.530;2023-04-08T06:05:26;64.97;;;58.55;;
56997;SDS011;42890;44.244;22.530;2023-04-08T06:07:52;68.40;;;61.17;;
56997;SDS011;42890;44.244;22.530;2023-04-08T06:10:18;64.53;;;57.88;;
56997;SDS011;42890;44.244;22.530;2023-04-08T06:12:44;62.50;;;56.22;;
56997;SDS011;42890;44.244;22.530;2023-04-08T06:15:11;61.78;;;55.55;;
56997;SDS011;42890;44.244;22.530;2023-04-08T06:17:37;56.25;;;50.67;;
56997;SDS011;42890;44.244;22.530;2023-04-08T06:20:07;53.92;;;48.70;;
56997;SDS011;42890;44.244;22.530;2023-04-08T06:22:34;54.40;;;49.00;;
56997;SDS011;42890;44.244;22.530;2023-04-08T06:25:00;52.60;;;47.50;;
56997;SDS011;42890;44.244;22.530;2023-04-08T06:27:27;53.15;;;47.88;;
56997;SDS011;42890;44.244;22.530;2023-04-08T06:29:53;52.95;;;47.63;;
56997;SDS011;42890;44.244;22.530;2023-04-08T06:32:19;48.13;;;43.20;;
56997;SDS011;42890;44.244;22.530;2023-04-08T06:34:45;51.13;;;46.22;;
56997;SDS011;42890;44.244;22.530;2023-04-08T06:37:12;53.15;;;47.75;;
56997;SDS011;42890;44.244;22.530;2023-04-08T06:39:38;51.17;;;46.08;;
56997;SDS011;42890;44.244;22.530;2023-04-08T06:42:04;51.60;;;46.60;;
56997;SDS011;42890;44.244;22.530;2023-04-08T06:44:30;48.55;;;43.85;;
56997;SDS011;42890;44.244;22.530;2023-04-08T06:46:56;47.75;;;43.28;;
56997;SDS011;42890;44.244;22.530;2023-04-08T06:49:23;48.47;;;43.78;;
56997;SDS011;42890;44.244;22.530;2023-04-08T06:51:51;49.80;;;44.90;;
56997;SDS011;42890;44.244;22.530;2023-04-08T06:54:17;51.35;;;46.15;;
56997;SDS011;42890;44.244;22.530;2023-04-08T06:56:43;51.72;;;46.42;;
56997;SDS011;42890;44.244;22.530;2023-04-08T06:59:09;47.63;;;43.13;;
56997;SDS011;42890;44.244;22.530;2023-04-08T07:01:35;51.33;;;46.17;;
56997;SDS011;42890;44.244;22.530;2023-04-08T07:04:01;54.58;;;47.85;;
56997;SDS011;42890;44.244;22.530;2023-04-08T07:06:27;48.20;;;43.67;;
56997;SDS011;42890;44.244;22.530;2023-04-08T07:08:53;50.20;;;45.40;;
56997;SDS011;42890;44.244;22.530;2023-04-08T07:11:19;49.60;;;44.58;;
56997;SDS011;42890;44.244;22.530;2023-04-08T07:13:46;47.42;;;43.03;;
56997;SDS011;42890;44.244;22.530;2023-04-08T07:16:12;49.67;;;44.78;;
56997;SDS011;42890;44.244;22.530;2023-04-08T07:18:38;48.00;;;43.40;;
56997;SDS011;42890;44.244;22.530;2023-04-08T07:21:06;47.75;;;43.25;;
56997;SDS011;42890;44.244;22.530;2023-04-08T07:23:32;52.22;;;47.22;;
56997;SDS011;42890;44.244;22.530;2023-04-08T07:26:02;52.83;;;47.53;;
56997;SDS011;42890;44.244;22.530;2023-04-08T07:28:29;50.88;;;46.22;;
56997;SDS011;42890;44.244;22.530;2023-04-08T07:30:55;49.88;;;45.10;;
56997;SDS011;42890;44.244;22.530;2023-04-08T07:33:21;50.45;;;45.53;;
56997;SDS011;42890;44.244;22.530;2023-04-08T07:35:47;49.65;;;44.95;;
56997;SDS011;42890;44.244;22.530;2023-04-08T07:38:13;51.55;;;46.65;;
56997;SDS011;42890;44.244;22.530;2023-04-08T07:40:40;52.33;;;47.33;;
56997;SDS011;42890;44.244;22.530;2023-04-08T07:43:06;47.63;;;43.05;;
56997;SDS011;42890;44.244;22.530;2023-04-08T07:45:33;51.25;;;46.40;;
56997;SDS011;42890;44.244;22.530;2023-04-08T07:47:59;48.03;;;43.58;;
56997;SDS011;42890;44.244;22.530;2023-04-08T07:50:25;44.83;;;40.83;;
56997;SDS011;42890;44.244;22.530;2023-04-08T07:52:52;45.58;;;41.38;;
56997;SDS011;42890;44.244;22.530;2023-04-08T07:55:18;46.92;;;42.38;;
56997;SDS011;42890;44.244;22.530;2023-04-08T07:57:44;49.20;;;44.78;;
56997;SDS011;42890;44.244;22.530;2023-04-08T08:00:10;45.97;;;41.65;;
56997;SDS011;42890;44.244;22.530;2023-04-08T08:02:36;45.03;;;40.85;;
56997;SDS011;42890;44.244;22.530;2023-04-08T08:05:03;41.50;;;37.67;;
56997;SDS011;42890;44.244;22.530;2023-04-08T08:07:30;46.45;;;42.15;;
56997;SDS011;42890;44.244;22.530;2023-04-08T08:09:56;46.55;;;42.15;;
56997;SDS011;42890;44.244;22.530;2023-04-08T08:12:22;43.40;;;39.15;;
56997;SDS011;42890;44.244;22.530;2023-04-08T08:14:48;44.10;;;40.00;;
56997;SDS011;42890;44.244;22.530;2023-04-08T08:17:15;41.78;;;37.85;;
56997;SDS011;42890;44.244;22.530;2023-04-08T08:19:42;44.45;;;40.05;;
56997;SDS011;42890;44.244;22.530;2023-04-08T08:22:08;42.63;;;38.75;;
56997;SDS011;42890;44.244;22.530;2023-04-08T08:24:34;43.53;;;39.53;;
56997;SDS011;42890;44.244;22.530;2023-04-08T08:27:00;48.78;;;44.15;;
56997;SDS011;42890;44.244;22.530;2023-04-08T08:29:28;44.53;;;40.13;;
56997;SDS011;42890;44.244;22.530;2023-04-08T08:31:54;46.05;;;41.08;;
56997;SDS011;42890;44.244;22.530;2023-04-08T08:34:20;42.92;;;38.60;;
56997;SDS011;42890;44.244;22.530;2023-04-08T08:36:46;40.95;;;37.05;;
56997;SDS011;42890;44.244;22.530;2023-04-08T08:39:14;41.20;;;37.42;;
56997;SDS011;42890;44.244;22.530;2023-04-08T08:41:40;40.30;;;36.60;;
56997;SDS011;42890;44.244;22.530;2023-04-08T08:44:06;40.75;;;36.95;;
56997;SDS011;42890;44.244;22.530;2023-04-08T08:46:33;38.85;;;35.38;;
56997;SDS011;42890;44.244;22.530;2023-04-08T08:48:59;40.95;;;37.25;;
56997;SDS011;42890;44.244;22.530;2023-04-08T08:51:25;39.33;;;35.65;;
56997;SDS011;42890;44.244;22.530;2023-04-08T08:53:52;40.65;;;36.92;;
56997;SDS011;42890;44.244;22.530;2023-04-08T08:56:18;63.10;;;49.75;;
56997;SDS011;42890;44.244;22.530;2023-04-08T08:58:44;40.78;;;36.88;;
56997;SDS011;42890;44.244;22.530;2023-04-08T09:04:12;40.80;;;36.95;;
56997;SDS011;42890;44.244;22.530;2023-04-08T09:06:40;39.22;;;35.60;;
56997;SDS011;42890;44.244;22.530;2023-04-08T09:09:06;36.10;;;32.72;;
56997;SDS011;42890;44.244;22.530;2023-04-08T09:11:36;35.22;;;31.98;;
56997;SDS011;42890;44.244;22.530;2023-04-08T09:14:03;36.17;;;32.83;;
56997;SDS011;42890;44.244;22.530;2023-04-08T09:16:31;40.42;;;36.53;;
56997;SDS011;42890;44.244;22.530;2023-04-08T09:19:07;38.42;;;35.03;;
56997;SDS011;42890;44.244;22.530;2023-04-08T09:21:34;41.42;;;37.05;;
56997;SDS011;42890;44.244;22.530;2023-04-08T09:24:00;35.92;;;32.67;;
56997;SDS011;42890;44.244;22.530;2023-04-08T09:26:26;40.08;;;34.00;;
56997;SDS011;42890;44.244;22.530;2023-04-08T09:31:26;49.83;;;41.08;;
56997;SDS011;42890;44.244;22.530;2023-04-08T09:33:56;40.75;;;36.75;;
56997;SDS011;42890;44.244;22.530;2023-04-08T09:36:22;42.00;;;38.25;;
56997;SDS011;42890;44.244;22.530;2023-04-08T09:38:50;34.30;;;30.95;;
56997;SDS011;42890;44.244;22.530;2023-04-08T09:41:17;35.22;;;31.48;;
56997;SDS011;42890;44.244;22.530;2023-04-08T09:43:50;32.83;;;29.30;;
56997;SDS011;42890;44.244;22.530;2023-04-08T09:46:23;33.33;;;30.30;;
56997;SDS011;42890;44.244;22.530;2023-04-08T09:49:11;33.90;;;30.73;;
56997;SDS011;42890;44.244;22.530;2023-04-08T09:54:25;35.08;;;31.88;;
56997;SDS011;42890;44.244;22.530;2023-04-08T09:57:00;35.13;;;31.60;;
56997;SDS011;42890;44.244;22.530;2023-04-08T09:59:29;32.20;;;29.50;;
56997;SDS011;42890;44.244;22.530;2023-04-08T10:01:57;33.10;;;30.20;;
56997;SDS011;42890;44.244;22.530;2023-04-08T10:04:26;33.13;;;29.90;;
56997;SDS011;42890;44.244;22.530;2023-04-08T10:06:56;39.72;;;35.85;;
56997;SDS011;42890;44.244;22.530;2023-04-08T10:09:25;32.97;;;29.88;;
56997;SDS011;42890;44.244;22.530;2023-04-08T10:11:52;30.13;;;27.17;;
56997;SDS011;42890;44.244;22.530;2023-04-08T10:14:18;32.40;;;29.52;;
56997;SDS011;42890;44.244;22.530;2023-04-08T10:16:46;33.45;;;30.45;;
56997;SDS011;42890;44.244;22.530;2023-04-08T10:21:57;30.90;;;28.27;;
56997;SDS011;42890;44.244;22.530;2023-04-08T10:24:23;31.38;;;28.67;;
56997;SDS011;42890;44.244;22.530;2023-04-08T10:26:49;30.38;;;27.67;;
56997;SDS011;42890;44.244;22.530;2023-04-08T10:31:45;31.52;;;28.73;;
56997;SDS011;42890;44.244;22.530;2023-04-08T10:34:15;29.90;;;27.42;;
56997;SDS011;42890;44.244;22.530;2023-04-08T10:36:44;32.50;;;29.30;;
56997;SDS011;42890;44.244;22.530;2023-04-08T10:39:11;32.30;;;29.10;;
56997;SDS011;42890;44.244;22.530;2023-04-08T10:41:47;29.50;;;26.98;;
56997;SDS011;42890;44.244;22.530;2023-04-08T10:44:34;29.65;;;26.70;;
56997;SDS011;42890;44.244;22.530;2023-04-08T10:47:00;29.40;;;26.88;;
56997;SDS011;42890;44.244;22.530;2023-04-08T10:49:33;30.50;;;27.80;;
56997;SDS011;42890;44.244;22.530;2023-04-08T10:51:59;29.08;;;26.45;;
56997;SDS011;42890;44.244;22.530;2023-04-08T10:54:25;29.85;;;27.13;;
56997;SDS011;42890;44.244;22.530;2023-04-08T10:56:51;30.40;;;27.42;;
56997;SDS011;42890;44.244;22.530;2023-04-08T10:59:28;40.60;;;36.38;;
56997;SDS011;42890;44.244;22.530;2023-04-08T11:01:54;30.33;;;27.73;;
56997;SDS011;42890;44.244;22.530;2023-04-08T11:04:21;31.13;;;28.33;;
56997;SDS011;42890;44.244;22.530;2023-04-08T11:06:50;31.25;;;28.35;;
56997;SDS011;42890;44.244;22.530;2023-04-08T11:09:16;32.00;;;29.10;;
56997;SDS011;42890;44.244;22.530;2023-04-08T11:11:43;32.50;;;29.40;;
56997;SDS011;42890;44.244;22.530;2023-04-08T11:14:09;29.38;;;26.90;;
56997;SDS011;42890;44.244;22.530;2023-04-08T11:16:38;30.95;;;27.95;;
56997;SDS011;42890;44.244;22.530;2023-04-08T11:19:05;30.50;;;27.80;;
56997;SDS011;42890;44.244;22.530;2023-04-08T11:21:34;32.38;;;29.35;;
56997;SDS011;42890;44.244;22.530;2023-04-08T11:24:00;34.65;;;31.45;;
56997;SDS011;42890;44.244;22.530;2023-04-08T11:26:26;33.67;;;30.42;;
56997;SDS011;42890;44.244;22.530;2023-04-08T11:28:53;31.05;;;28.27;;
56997;SDS011;42890;44.244;22.530;2023-04-08T11:31:20;30.55;;;27.85;;
56997;SDS011;42890;44.244;22.530;2023-04-08T11:33:47;32.50;;;29.70;;
56997;SDS011;42890;44.244;22.530;2023-04-08T11:36:14;34.88;;;31.67;;
56997;SDS011;42890;44.244;22.530;2023-04-08T11:38:43;32.60;;;29.67;;
56997;SDS011;42890;44.244;22.530;2023-04-08T11:41:09;32.67;;;29.90;;
56997;SDS011;42890;44.244;22.530;2023-04-08T11:43:36;31.50;;;28.45;;
56997;SDS011;42890;44.244;22.530;2023-04-08T11:46:09;33.88;;;30.88;;
56997;SDS011;42890;44.244;22.530;2023-04-08T11:48:36;30.80;;;28.10;;
56997;SDS011;42890;44.244;22.530;2023-04-08T11:51:06;31.55;;;28.88;;
56997;SDS011;42890;44.244;22.530;2023-04-08T11:53:36;33.25;;;30.38;;
56997;SDS011;42890;44.244;22.530;2023-04-08T11:56:15;33.95;;;30.52;;
56997;SDS011;42890;44.244;22.530;2023-04-08T11:58:41;32.33;;;29.60;;
56997;SDS011;42890;44.244;22.530;2023-04-08T12:01:07;33.08;;;30.27;;
56997;SDS011;42890;44.244;22.530;2023-04-08T12:03:33;35.80;;;32.45;;
56997;SDS011;42890;44.244;22.530;2023-04-08T12:05:59;31.92;;;29.08;;
56997;SDS011;42890;44.244;22.530;2023-04-08T12:08:25;35.50;;;32.22;;
56997;SDS011;42890;44.244;22.530;2023-04-08T12:10:52;35.67;;;32.45;;
56997;SDS011;42890;44.244;22.530;2023-04-08T12:13:18;30.98;;;28.20;;
56997;SDS011;42890;44.244;22.530;2023-04-08T12:15:44;28.33;;;25.80;;
56997;SDS011;42890;44.244;22.530;2023-04-08T12:18:11;28.98;;;26.38;;
56997;SDS011;42890;44.244;22.530;2023-04-08T12:20:37;29.58;;;27.08;;
56997;SDS011;42890;44.244;22.530;2023-04-08T12:23:03;29.38;;;26.88;;
56997;SDS011;42890;44.244;22.530;2023-04-08T12:25:29;29.52;;;26.92;;
56997;SDS011;42890;44.244;22.530;2023-04-08T12:27:55;26.75;;;24.42;;
56997;SDS011;42890;44.244;22.530;2023-04-08T12:30:21;27.58;;;25.23;;
56997;SDS011;42890;44.244;22.530;2023-04-08T12:32:47;30.05;;;27.50;;
56997;SDS011;42890;44.244;22.530;2023-04-08T12:35:13;30.27;;;27.65;;
56997;SDS011;42890;44.244;22.530;2023-04-08T12:37:44;33.17;;;30.33;;
56997;SDS011;42890;44.244;22.530;2023-04-08T12:40:10;30.25;;;27.52;;
56997;SDS011;42890;44.244;22.530;2023-04-08T12:42:37;32.28;;;29.27;;
56997;SDS011;42890;44.244;22.530;2023-04-08T12:45:03;30.27;;;27.63;;
56997;SDS011;42890;44.244;22.530;2023-04-08T12:47:30;28.92;;;26.30;;
56997;SDS011;42890;44.244;22.530;2023-04-08T12:49:57;28.10;;;25.70;;
56997;SDS011;42890;44.244;22.530;2023-04-08T12:52:23;29.63;;;27.23;;
56997;SDS011;42890;44.244;22.530;2023-04-08T12:54:49;29.98;;;27.40;;
56997;SDS011;42890;44.244;22.530;2023-04-08T12:57:15;33.10;;;29.85;;
56997;SDS011;42890;44.244;22.530;2023-04-08T12:59:41;33.17;;;30.27;;
56997;SDS011;42890;44.244;22.530;2023-04-08T13:02:07;30.10;;;27.50;;
56997;SDS011;42890;44.244;22.530;2023-04-08T13:04:33;30.90;;;28.17;;
56997;SDS011;42890;44.244;22.530;2023-04-08T13:07:00;33.67;;;30.65;;
56997;SDS011;42890;44.244;22.530;2023-04-08T13:09:26;32.90;;;29.90;;
56997;SDS011;42890;44.244;22.530;2023-04-08T13:11:54;32.33;;;29.52;;
56997;SDS011;42890;44.244;22.530;2023-04-08T13:14:20;33.47;;;30.40;;
56997;SDS011;42890;44.244;22.530;2023-04-08T13:16:46;33.30;;;30.33;;
56997;SDS011;42890;44.244;22.530;2023-04-08T13:19:12;33.40;;;30.50;;
56997;SDS011;42890;44.244;22.530;2023-04-08T13:21:39;33.17;;;30.27;;
56997;SDS011;42890;44.244;22.530;2023-04-08T13:24:05;33.40;;;30.00;;
56997;SDS011;42890;44.244;22.530;2023-04-08T13:26:31;33.05;;;30.08;;
56997;SDS011;42890;44.244;22.530;2023-04-08T13:28:57;36.40;;;33.17;;
56997;SDS011;42890;44.244;22.530;2023-04-08T13:31:23;35.30;;;32.10;;
56997;SDS011;42890;44.244;22.530;2023-04-08T13:33:49;36.55;;;33.15;;
56997;SDS011;42890;44.244;22.530;2023-04-08T13:36:15;36.65;;;33.20;;
56997;SDS011;42890;44.244;22.530;2023-04-08T13:38:41;37.67;;;34.22;;
56997;SDS011;42890;44.244;22.530;2023-04-08T13:41:10;37.58;;;34.28;;
56997;SDS011;42890;44.244;22.530;2023-04-08T13:43:36;37.35;;;33.95;;
56997;SDS011;42890;44.244;22.530;2023-04-08T13:46:02;37.88;;;34.30;;
56997;SDS011;42890;44.244;22.530;2023-04-08T13:48:28;37.97;;;34.38;;
56997;SDS011;42890;44.244;22.530;2023-04-08T13:50:54;37.85;;;34.53;;
56997;SDS011;42890;44.244;22.530;2023-04-08T13:53:21;39.08;;;35.67;;
56997;SDS011;42890;44.244;22.530;2023-04-08T13:55:50;38.58;;;35.20;;
56997;SDS011;42890;44.244;22.530;2023-04-08T13:58:20;37.78;;;34.45;;
56997;SDS011;42890;44.244;22.530;2023-04-08T14:00:46;39.75;;;36.10;;
56997;SDS011;42890;44.244;22.530;2023-04-08T14:03:12;40.08;;;36.33;;
56997;SDS011;42890;44.244;22.530;2023-04-08T14:05:38;39.65;;;36.13;;
56997;SDS011;42890;44.244;22.530;2023-04-08T14:08:05;41.55;;;37.42;;
56997;SDS011;42890;44.244;22.530;2023-04-08T14:10:31;39.80;;;36.13;;
56997;SDS011;42890;44.244;22.530;2023-04-08T14:12:57;40.63;;;36.70;;
56997;SDS011;42890;44.244;22.530;2023-04-08T14:15:23;40.38;;;36.58;;
56997;SDS011;42890;44.244;22.530;2023-04-08T14:17:49;39.20;;;35.50;;
56997;SDS011;42890;44.244;22.530;2023-04-08T14:20:15;40.53;;;36.58;;
56997;SDS011;42890;44.244;22.530;2023-04-08T14:22:41;38.22;;;34.75;;